Time;durP1;ratioP1;P1;durP2;ratioP2;P2;SDS_P1;SDS_P2;PMS_P1;PMS_P2;Temp;Humidity;BMP_temperature;BMP_pressure;BME280_temperature;BME280_humidity;BME280_pressure;Samples;Min_cycle;Max_cycle;Signal;HPM_P1;HPM_P2
2023/06/18 00:05:20;;;;;;;13.20;9.60;;;;;;;13.91;90.76;98803.09;273310;1270;22455;-83
2023/06/18 00:11:22;;;;;;;13.70;10.20;;;;;;;13.86;90.96;98801.48;272129;1270;22557;-83
2023/06/18 00:17:47;;;;;;;12.80;9.90;;;;;;;13.75;90.98;98796.88;271208;1270;23043;-84
2023/06/18 00:24:24;;;;;;;13.80;10.00;;;;;;;13.62;91.42;98795.38;272001;1270;22589;-83
2023/06/18 00:30:27;;;;;;;14.20;10.10;;;;;;;13.50;91.57;98800.92;272186;1270;22577;-84
2023/06/18 00:36:57;;;;;;;11.60;10.30;;;;;;;13.37;91.73;98802.14;269971;1269;23370;-83
2023/06/18 00:43:03;;;;;;;15.20;10.70;;;;;;;13.20;91.96;98798.02;271623;1270;23990;-82
2023/06/18 00:49:05;;;;;;;13.30;11.40;;;;;;;13.05;92.17;98795.55;270403;1254;22574;-83
2023/06/18 00:55:08;;;;;;;16.30;11.60;;;;;;;12.99;92.59;98793.10;270265;1270;23019;-84
2023/06/18 01:02:45;;;;;;;15.10;11.50;;;;;;;12.96;92.69;98794.83;273153;1263;22470;-83
2023/06/18 01:09:29;;;;;;;15.60;11.50;;;;;;;12.90;92.76;98800.41;273407;1270;22517;-84
2023/06/18 01:16:46;;;;;;;10.90;9.50;;;;;;;12.79;92.86;98801.30;272583;1272;22196;-83
2023/06/18 01:22:57;;;;;;;11.00;9.10;;;;;;;12.64;93.27;98802.09;272418;1259;22669;-83
2023/06/18 01:30:02;;;;;;;12.50;9.80;;;;;;;12.55;93.27;98806.95;271964;1263;22188;-83
2023/06/18 01:36:47;;;;;;;13.30;9.20;;;;;;;12.44;93.79;98809.30;270843;1268;22595;-83
2023/06/18 01:50:21;;;;;;;12.80;10.40;;;;;;;12.24;94.08;98821.11;269495;1276;22590;-82
2023/06/18 01:56:43;;;;;;;15.60;9.80;;;;;;;12.09;94.38;98826.10;269715;1270;23930;-84
2023/06/18 02:19:06;;;;;;;11.30;9.90;;;;;;;11.73;96.08;98827.80;271821;1272;22560;-84
2023/06/18 02:32:39;;;;;;;14.30;11.10;;;;;;;11.52;95.95;98833.30;271106;1268;22733;-84
2023/06/18 02:38:45;;;;;;;15.40;10.90;;;;;;;11.47;96.23;98841.04;270419;1271;22555;-84
2023/06/18 02:52:26;;;;;;;14.50;11.30;;;;;;;11.27;96.44;98853.85;272713;1259;22241;-84
2023/06/18 02:59:07;;;;;;;;;;;;;;;;;;;;;
2023/06/18 03:06:00;;;;;;;14.80;11.10;;;;;;;11.20;97.31;98863.91;271680;1270;22247;-85
2023/06/18 03:12:18;;;;;;;16.40;11.50;;;;;;;11.16;97.50;98866.38;270885;1262;22762;-83
2023/06/18 03:18:39;;;;;;;16.00;11.20;;;;;;;11.14;97.72;98863.55;271615;1272;22242;-84
2023/06/18 03:24:42;;;;;;;11.40;9.10;;;;;;;11.16;98.13;98867.23;272076;1272;22565;-82
2023/06/18 03:38:11;;;;;;;17.00;10.50;;;;;;;11.10;98.52;98867.59;271456;1272;22282;-83
2023/06/18 03:59:42;;;;;;;13.30;9.70;;;;;;;11.40;99.72;98874.35;272665;1272;22573;-83
2023/06/18 04:06:04;;;;;;;16.80;11.10;;;;;;;11.47;99.90;98884.52;270469;1272;22557;-82
2023/06/18 04:12:31;;;;;;;13.70;10.70;;;;;;;11.58;100.00;98884.81;271227;1271;22331;-83
2023/06/18 04:19:23;;;;;;;12.70;10.40;;;;;;;11.72;100.00;98886.48;273341;1276;22909;-83
2023/06/18 04:33:43;;;;;;;14.30;10.80;;;;;;;12.15;100.00;98896.20;273218;1279;22366;-83
2023/06/18 04:48:15;;;;;;;13.00;10.20;;;;;;;12.69;100.00;98901.98;272842;1272;244861;-83
2023/06/18 04:54:17;;;;;;;12.10;10.80;;;;;;;12.96;100.00;98899.40;270542;1271;24283;-83
2023/06/18 05:08:07;;;;;;;12.70;10.50;;;;;;;13.57;100.00;98904.46;272064;1272;22564;-84
2023/06/18 05:14:10;;;;;;;15.90;10.40;;;;;;;13.89;100.00;98915.29;270122;1271;22549;-86
2023/06/18 05:21:21;;;;;;;11.70;9.50;;;;;;;14.18;100.00;98919.83;272221;1272;22299;-84
2023/06/18 05:28:28;;;;;;;12.50;9.30;;;;;;;14.59;100.00;98923.16;273173;1272;23383;-84
2023/06/18 05:49:33;;;;;;;13.80;9.70;;;;;;;15.32;100.00;98949.48;273662;1272;22220;-83
2023/06/18 05:56:01;;;;;;;12.10;9.80;;;;;;;15.45;99.53;98947.27;271795;1260;22617;-83
2023/06/18 06:02:05;;;;;;;13.30;10.10;;;;;;;15.67;99.25;98953.05;271390;1271;22561;-84
2023/06/18 06:08:07;;;;;;;15.50;12.00;;;;;;;15.87;98.82;98955.13;270149;1269;22606;-84
2023/06/18 06:14:25;;;;;;;12.70;10.60;;;;;;;16.10;98.54;98957.40;270441;1272;22197;-85
2023/06/18 06:20:53;;;;;;;14.10;9.90;;;;;;;16.36;98.29;98954.31;273107;1272;22144;-83
2023/06/18 06:42:26;;;;;;;11.50;8.80;;;;;;;17.10;96.78;98949.33;273291;1277;22379;-84
2023/06/18 06:48:46;;;;;;;11.90;8.60;;;;;;;17.49;96.73;98953.37;272940;1276;22943;-84
2023/06/18 06:55:03;;;;;;;11.20;7.70;;;;;;;17.92;95.72;98950.15;272954;1265;22203;-84
2023/06/18 07:01:05;;;;;;;10.80;6.60;;;;;;;18.43;95.51;98941.59;273088;1272;23272;-84
2023/06/18 07:07:49;;;;;;;8.10;6.90;;;;;;;19.10;94.51;98942.80;272285;1272;22148;-84
2023/06/18 07:13:53;;;;;;;7.80;6.10;;;;;;;19.89;91.26;98942.76;272012;1272;22713;-84
2023/06/18 07:20:08;;;;;;;8.50;5.70;;;;;;;20.61;89.01;98942.32;271395;1272;22536;-84
2023/06/18 07:26:12;;;;;;;;;;;;;;;21.26;87.54;98941.30;272410;1272;22519;-83
2023/06/18 07:32:17;;;;;;;7.20;5.90;;;;;;;21.52;85.14;98939.40;270606;1272;22578;-84
2023/06/18 07:38:22;;;;;;;7.60;6.00;;;;;;;21.55;83.98;98943.11;272817;1272;23150;-83
2023/06/18 07:45:04;;;;;;;12.40;6.20;;;;;;;21.62;82.25;98943.98;270606;1272;23026;-84
2023/06/18 07:51:47;;;;;;;7.40;5.50;;;;;;;21.60;80.21;98944.80;271957;1277;22369;-84
2023/06/18 08:06:31;;;;;;;7.60;5.70;;;;;;;21.46;79.23;98948.44;269535;1277;22569;-83
2023/06/18 08:13:10;;;;;;;5.50;5.00;;;;;;;21.73;78.09;98944.36;271983;1271;22313;-84
2023/06/18 08:19:12;;;;;;;7.90;6.30;;;;;;;21.88;76.47;98945.36;272504;1277;24462;-83
2023/06/18 08:25:56;;;;;;;8.50;5.70;;;;;;;22.00;75.97;98938.35;272776;1272;22325;-84
2023/06/18 08:32:26;;;;;;;7.00;4.90;;;;;;;22.31;74.73;98940.55;271650;1272;22622;-84
2023/06/18 08:38:39;;;;;;;7.70;5.60;;;;;;;22.20;73.19;98935.86;272627;1272;22593;-84
2023/06/18 08:44:41;;;;;;;6.50;5.20;;;;;;;22.05;73.49;98929.65;271824;1272;22550;-83
2023/06/18 08:50:43;;;;;;;6.00;4.80;;;;;;;22.02;72.68;98926.61;271070;1272;22567;-84
2023/06/18 09:04:39;;;;;;;5.80;4.30;;;;;;;22.32;71.83;98924.33;272998;1272;22546;-83
2023/06/18 09:10:44;;;;;;;8.20;5.00;;;;;;;22.29;70.81;98921.44;270827;1272;22667;-83
2023/06/18 09:17:11;;;;;;;6.40;5.20;;;;;;;22.21;69.03;98912.17;271171;1272;22560;-83
2023/06/18 09:23:13;;;;;;;5.50;4.80;;;;;;;22.17;68.59;98914.70;271874;1272;23399;-83
2023/06/18 09:29:15;;;;;;;5.10;4.60;;;;;;;22.36;68.72;98913.35;269763;1272;23148;-82
2023/06/18 09:35:18;;;;;;;6.20;4.80;;;;;;;23.00;68.46;98909.90;270418;1271;23457;-83
2023/06/18 09:41:20;;;;;;;6.80;5.40;;;;;;;23.21;67.26;98912.62;270891;1272;23260;-82
2023/06/18 09:47:23;;;;;;;5.60;4.40;;;;;;;23.52;67.01;98914.94;270693;1272;22554;-83
2023/06/18 09:53:28;;;;;;;4.70;4.10;;;;;;;24.05;66.65;98919.48;271946;1271;22580;-83
2023/06/18 09:59:31;;;;;;;5.70;3.30;;;;;;;24.35;64.24;98912.46;271020;1271;25294;-83
2023/06/18 10:05:35;;;;;;;3.60;3.10;;;;;;;24.61;62.41;98905.61;271401;1270;22527;-82
2023/06/18 10:12:03;;;;;;;4.80;4.30;;;;;;;24.63;62.37;98898.45;270607;1270;24203;-83
2023/06/18 10:26:11;;;;;;;4.40;3.80;;;;;;;24.68;59.36;98881.45;271801;1270;23616;-82
2023/06/18 10:32:13;;;;;;;3.30;3.00;;;;;;;25.04;58.62;98876.02;271285;1270;24288;-82
2023/06/18 10:38:15;;;;;;;5.40;3.00;;;;;;;25.42;57.78;98873.38;271247;1270;22592;-83
2023/06/18 10:44:54;;;;;;;4.00;3.30;;;;;;;25.81;56.81;98877.33;273381;1274;22225;-83
2023/06/18 10:51:23;;;;;;;2.90;2.60;;;;;;;26.05;55.14;98877.89;272954;1270;22651;-82
2023/06/18 10:57:26;;;;;;;3.20;2.70;;;;;;;26.25;54.58;98874.02;272528;1267;22519;-83
2023/06/18 11:03:37;;;;;;;3.80;3.30;;;;;;;26.36;53.00;98871.35;273723;1270;22223;-82
2023/06/18 11:10:10;;;;;;;3.60;2.90;;;;;;;26.78;52.54;98864.48;272535;1270;24244;-84
2023/06/18 11:16:16;;;;;;;4.50;3.30;;;;;;;26.90;51.50;98866.77;271957;1270;25350;-83
2023/06/18 11:22:19;;;;;;;4.10;2.60;;;;;;;26.47;51.15;98869.61;272275;1270;24260;-84
2023/06/18 11:28:24;;;;;;;3.50;2.60;;;;;;;26.73;50.12;98865.41;271651;1270;22203;-83
2023/06/18 11:35:07;;;;;;;2.70;2.50;;;;;;;27.23;49.43;98866.42;272405;1258;22590;-84
2023/06/18 11:56:30;;;;;;;3.50;2.20;;;;;;;28.02;47.14;98849.45;272029;1263;23753;-85
2023/06/18 12:03:19;;;;;;;2.70;2.50;;;;;;;27.74;46.22;98843.53;273257;1272;22255;-85
2023/06/18 12:09:31;;;;;;;3.80;2.50;;;;;;;27.29;46.14;98835.25;272700;1272;22998;-84
2023/06/18 12:16:02;;;;;;;3.00;2.70;;;;;;;27.00;46.07;98829.52;273253;1272;22348;-84
2023/06/18 12:22:04;;;;;;;3.40;2.80;;;;;;;26.48;46.48;98826.20;271263;1272;25707;-83
2023/06/18 12:28:53;;;;;;;6.60;3.50;;;;;;;26.28;46.65;98827.49;271324;1262;22179;-83
2023/06/18 12:35:19;;;;;;;4.20;3.40;;;;;;;25.65;46.68;98828.17;271659;1267;22550;-82
2023/06/18 12:41:23;;;;;;;4.90;3.20;;;;;;;25.33;47.80;98832.40;271556;1272;22803;-84
2023/06/18 12:47:26;;;;;;;3.40;3.10;;;;;;;25.40;47.55;98830.07;272764;1272;22420;-84
2023/06/18 12:53:52;;;;;;;3.50;3.10;;;;;;;25.35;47.33;98825.39;273497;1273;22217;-83
2023/06/18 13:00:45;;;;;;;4.20;3.80;;;;;;;25.32;47.75;98830.10;272172;1262;22657;-84
2023/06/18 13:07:16;;;;;;;4.20;3.80;;;;;;;25.31;47.75;98831.05;271463;1272;22557;-82
2023/06/18 13:13:43;;;;;;;4.30;3.80;;;;;;;24.93;47.31;98830.16;272424;1272;22547;-83
2023/06/18 13:19:45;;;;;;;;;;;;;;;24.51;47.19;98833.88;273136;1272;23628;-83
2023/06/18 13:25:47;;;;;;;9.40;3.80;;;;;;;24.35;47.37;98836.73;271597;1270;22519;-83
2023/06/18 13:32:09;;;;;;;3.80;3.40;;;;;;;24.27;47.31;98844.05;271822;1267;22706;-83
2023/06/18 13:38:31;;;;;;;4.10;3.70;;;;;;;24.10;47.18;98849.15;271516;1271;22569;-83
2023/06/18 13:44:32;;;;;;;5.10;3.50;;;;;;;24.12;48.24;98841.94;270376;1270;22185;-83
2023/06/18 13:50:40;;;;;;;8.90;4.30;;;;;;;24.11;50.29;98839.33;272565;1272;22260;-83
2023/06/18 13:56:42;;;;;;;3.90;3.50;;;;;;;24.08;49.18;98841.14;270760;1262;23048;-84
2023/06/18 14:02:44;;;;;;;4.20;3.60;;;;;;;24.04;49.24;98841.99;272571;1271;22414;-83
2023/06/18 14:17:10;;;;;;;4.20;3.30;;;;;;;24.13;51.29;98849.14;271068;1272;22709;-83
2023/06/18 14:23:14;;;;;;;4.70;3.90;;;;;;;24.29;50.99;98852.81;270009;1273;22520;-84
2023/06/18 14:29:36;;;;;;;4.90;4.40;;;;;;;24.32;50.52;98848.98;270135;1262;22527;-83
2023/06/18 14:36:28;;;;;;;4.70;4.30;;;;;;;24.28;50.38;98843.67;270067;1272;22575;-83
2023/06/18 14:42:30;;;;;;;4.80;3.90;;;;;;;23.81;50.19;98842.25;269723;1260;23351;-82
2023/06/18 14:50:01;;;;;;;4.50;4.10;;;;;;;23.30;50.72;98844.54;269974;1273;22546;-82
2023/06/18 14:56:29;;;;;;;4.80;4.40;;;;;;;23.08;50.96;98841.79;270056;1272;22574;-82
2023/06/18 15:03:23;;;;;;;5.10;4.30;;;;;;;23.16;51.67;98839.97;271188;1261;26532;-82
2023/06/18 15:09:28;;;;;;;3.60;3.30;;;;;;;22.99;51.32;98850.02;273041;1272;22170;-82
2023/06/18 15:16:01;;;;;;;5.40;3.70;;;;;;;22.68;51.40;98851.31;273080;1272;22199;-82
2023/06/18 15:22:05;;;;;;;4.80;4.20;;;;;;;22.71;52.50;98835.27;271218;1272;22367;-82
2023/06/18 15:28:52;;;;;;;5.00;3.50;;;;;;;22.91;53.00;98830.66;271887;1273;22252;-83
2023/06/18 15:35:04;;;;;;;;;;;;;;;22.98;53.44;98829.23;270887;1268;22529;-83
2023/06/18 15:41:55;;;;;;;4.20;3.60;;;;;;;22.92;52.56;98832.48;272114;1264;23540;-83
2023/06/18 15:48:38;;;;;;;3.50;3.20;;;;;;;22.81;51.55;98836.82;271383;1272;22485;-83
2023/06/18 15:54:51;;;;;;;4.60;3.40;;;;;;;22.68;51.30;98840.64;270636;1264;23309;-83
2023/06/18 16:01:38;;;;;;;4.10;3.30;;;;;;;22.52;51.00;98847.17;269851;1272;22559;-82
2023/06/18 16:07:45;;;;;;;3.40;3.10;;;;;;;22.43;51.15;98842.71;269828;1262;22552;-82
2023/06/18 16:13:49;;;;;;;3.90;3.50;;;;;;;22.40;51.49;98837.33;271612;1272;22482;-83
2023/06/18 16:20:33;;;;;;;3.70;3.40;;;;;;;22.37;52.02;98846.61;270485;1272;25187;-82
2023/06/18 16:26:53;;;;;;;5.10;3.50;;;;;;;22.33;53.40;98853.79;271753;1265;22604;-84
2023/06/18 16:33:01;;;;;;;5.50;4.40;;;;;;;22.30;53.74;98857.33;271407;1272;23800;-85
2023/06/18 16:39:04;;;;;;;5.70;4.60;;;;;;;22.29;53.41;98861.25;271496;1272;22929;-83
2023/06/18 16:45:06;;;;;;;4.30;3.90;;;;;;;22.28;53.14;98866.48;265296;1271;10138210;-84
2023/06/18 16:51:09;;;;;;;4.20;3.80;;;;;;;22.26;53.31;98870.38;270993;1271;22239;-84
2023/06/18 16:57:37;;;;;;;4.70;3.70;;;;;;;22.15;52.94;98866.71;271728;1272;22226;-84
2023/06/18 17:04:03;;;;;;;3.80;3.40;;;;;;;21.99;52.96;98866.77;271921;1266;22192;-82
2023/06/18 17:10:05;;;;;;;4.20;3.70;;;;;;;21.85;52.96;98868.24;270587;1272;22697;-83
2023/06/18 17:16:49;;;;;;;3.90;3.40;;;;;;;21.77;53.03;98875.78;271584;1272;22538;-83
2023/06/18 17:22:50;;;;;;;7.20;4.00;;;;;;;21.67;52.83;98883.02;271217;1272;22747;-83
2023/06/18 17:28:54;;;;;;;3.90;3.20;;;;;;;21.60;53.25;98888.60;272827;1271;22183;-83
2023/06/18 17:34:56;;;;;;;4.50;3.80;;;;;;;21.54;54.43;98894.55;272449;1272;22552;-83
2023/06/18 17:40:58;;;;;;;3.50;3.10;;;;;;;21.44;55.60;98897.29;269773;1272;22537;-83
2023/06/18 17:46:59;;;;;;;4.10;3.20;;;;;;;21.27;55.70;98893.23;269855;1272;22500;-83
2023/06/18 17:53:01;;;;;;;4.70;3.20;;;;;;;21.13;55.56;98899.45;271787;1272;23015;-83
2023/06/18 17:59:41;;;;;;;4.20;3.30;;;;;;;20.93;55.38;98904.36;269846;1271;26184;-83
2023/06/18 18:05:43;;;;;;;4.90;3.40;;;;;;;20.77;55.48;98904.79;272719;1272;22195;-83
2023/06/18 18:11:45;;;;;;;3.70;3.40;;;;;;;20.68;55.63;98911.04;271009;1271;22759;-84
2023/06/18 18:17:48;;;;;;;3.30;2.90;;;;;;;20.56;55.92;98917.36;271031;1272;23207;-83
2023/06/18 18:25:01;;;;;;;5.40;3.60;;;;;;;20.45;56.41;98925.31;272712;1271;22346;-83
2023/06/18 18:31:54;;;;;;;7.70;4.30;;;;;;;20.34;56.79;98924.70;272106;1272;22198;-83
2023/06/18 18:45:19;;;;;;;4.10;3.70;;;;;;;19.90;57.94;98938.54;270065;1272;22544;-83
2023/06/18 18:51:21;;;;;;;5.20;4.00;;;;;;;19.63;58.64;98944.58;270922;1271;24164;-83
2023/06/18 18:58:19;;;;;;;4.80;4.10;;;;;;;19.32;59.27;98956.08;270368;1272;22566;-82
2023/06/18 19:04:46;;;;;;;6.90;4.50;;;;;;;19.00;59.82;98957.45;270248;1272;25358;-82
2023/06/18 19:10:54;;;;;;;11.00;4.70;;;;;;;18.80;61.05;98958.23;271903;1260;22542;-83
2023/06/18 19:17:01;;;;;;;7.10;4.80;;;;;;;18.61;61.75;98963.09;271491;1270;23833;-83
2023/06/18 19:23:40;;;;;;;7.40;5.00;;;;;;;18.28;62.67;98966.53;270064;1272;22344;-83
2023/06/18 19:30:07;;;;;;;12.60;5.10;;;;;;;18.11;63.50;98966.87;272103;1272;22645;-83
2023/06/18 19:36:29;;;;;;;9.70;5.20;;;;;;;17.95;64.75;98975.34;271808;1272;22666;-83
2023/06/18 19:42:51;;;;;;;7.30;5.40;;;;;;;17.65;65.30;98976.43;272457;1272;22588;-82
2023/06/18 19:48:55;;;;;;;10.70;4.90;;;;;;;17.38;65.91;98974.66;271318;1272;22189;-83
2023/06/18 19:55:19;;;;;;;9.10;5.70;;;;;;;17.20;66.72;98979.61;271363;1272;23266;-83
2023/06/18 20:01:58;;;;;;;6.60;5.20;;;;;;;17.05;67.49;98981.66;273230;1272;22343;-82
2023/06/18 20:08:51;;;;;;;6.50;5.20;;;;;;;16.81;68.82;98988.08;273109;1272;22235;-82
2023/06/18 20:15:14;;;;;;;6.80;5.40;;;;;;;16.53;69.86;98989.72;272666;1269;22564;-83
2023/06/18 20:21:42;;;;;;;9.90;5.80;;;;;;;16.39;70.18;98989.95;272559;1272;22568;-82
2023/06/18 20:27:45;;;;;;;9.10;6.40;;;;;;;16.25;70.54;98992.81;270833;1272;25228;-83
2023/06/18 20:41:24;;;;;;;13.00;8.10;;;;;;;15.84;72.43;98998.13;272744;1272;22459;-82
2023/06/18 20:55:10;;;;;;;15.30;8.60;;;;;;;15.51;73.99;99006.09;271035;1274;22210;-82
2023/06/18 21:01:36;;;;;;;13.00;8.60;;;;;;;15.31;74.66;99009.45;272795;1265;22207;-82
2023/06/18 21:07:38;;;;;;;16.80;12.00;;;;;;;15.19;75.09;99003.34;271684;1273;22377;-82
2023/06/18 21:13:40;;;;;;;15.30;10.00;;;;;;;15.14;75.94;99000.21;272573;1273;22480;-81
2023/06/18 21:27:40;;;;;;;17.20;8.90;;;;;;;14.78;77.00;98999.66;272892;1274;22207;-83
2023/06/18 21:34:07;;;;;;;12.20;8.40;;;;;;;14.58;77.64;98998.50;273070;1273;22210;-83
2023/06/18 21:40:11;;;;;;;12.80;9.60;;;;;;;14.45;78.14;98998.71;270356;1273;23073;-83
2023/06/18 21:46:34;;;;;;;12.50;9.70;;;;;;;14.34;78.76;98998.36;271541;1272;22558;-82
2023/06/18 21:53:23;;;;;;;14.10;9.00;;;;;;;14.26;79.22;98997.68;272783;1275;22217;-83
2023/06/18 21:59:49;;;;;;;13.40;9.90;;;;;;;14.12;80.06;98991.98;271159;1273;22175;-82
2023/06/18 22:05:51;;;;;;;14.60;10.30;;;;;;;14.02;80.61;98995.15;270963;1272;23406;-82
2023/06/18 22:12:49;;;;;;;14.30;11.10;;;;;;;13.98;81.23;98990.12;271700;1263;22346;-82
2023/06/18 22:19:16;;;;;;;15.10;10.30;;;;;;;13.90;81.43;98992.41;272065;1272;22667;-83
2023/06/18 22:25:49;;;;;;;13.50;10.50;;;;;;;13.71;81.92;98990.48;272470;1272;22337;-82
2023/06/18 22:32:44;;;;;;;17.70;11.20;;;;;;;13.56;82.68;98988.14;272574;1272;22209;-82
2023/06/18 22:56:02;;;;;;;14.70;10.20;;;;;;;13.11;83.82;98992.93;271964;1272;22196;-82
2023/06/18 23:03:01;;;;;;;13.50;9.60;;;;;;;13.15;84.79;98991.38;272810;1272;22198;-81
2023/06/18 23:09:53;;;;;;;14.50;9.80;;;;;;;13.09;85.11;98993.02;273051;1272;22301;-82
2023/06/18 23:16:16;;;;;;;11.90;9.50;;;;;;;12.99;85.58;98996.20;272876;1272;22202;-82
2023/06/18 23:30:04;;;;;;;13.80;9.80;;;;;;;12.84;86.45;98990.05;270864;1272;22381;-82
2023/06/18 23:36:52;;;;;;;12.80;9.60;;;;;;;12.79;86.61;98989.56;272141;1277;22226;-82
2023/06/18 23:43:02;;;;;;;10.90;8.40;;;;;;;12.75;87.22;98986.82;272236;1278;22217;-82
